Tahawus, New York
Current Conditions -  °F | °C
As of 12:51 PM on Thursday 30 Oct 2014 (Local Time) from KSLK Reporting Station
Overcast Overcast  
Wind Chill:   Ceiling: 2400
Heat Index:   Visibility: 10mi
Dew Point:   Wind: 7mph
Humidity: 77%   Direction: 230°SW
Pressure: 29.95"   Gusts: NA
Location:  44.0508°N, 74.0396°W
Report Text: KSLK 301651Z AUTO 23006KT 10SM FEW018 OVC024 04/01 A2995 RMK AO2 SLP151 T00440006
Loading
Personal Weather Stations






























Interactive Weather Map
Tropical Storm Tracking
New forecast layout! Learn more

10-Day Weather Forecast

Advertisements
Track Severe Weather on mobile